Time;durP1;ratioP1;P1;durP2;ratioP2;P2;SDS_P1;SDS_P2;PMS_P1;PMS_P2;Temp;Humidity;BMP_temperature;BMP_pressure;BME280_temperature;BME280_humidity;BME280_pressure;Samples;Min_cycle;Max_cycle;Signal;HPM_P1;HPM_P2
2022/05/04 00:01:50;;;;;;;3.42;1.55;;;20.80;68.70;;;;;;5088836;23;20443;-59
2022/05/04 00:03:52;;;;;;;7.68;2.30;;;20.80;68.60;;;;;;5088621;23;20446;-58
2022/05/04 00:05:54;;;;;;;3.45;1.70;;;20.80;68.40;;;;;;5085099;23;20143;-59
2022/05/04 00:07:56;;;;;;;4.88;1.95;;;20.80;68.60;;;;;;5094373;23;20028;-60
2022/05/04 00:09:59;;;;;;;7.90;2.15;;;20.80;68.70;;;;;;5084219;23;20028;-59
2022/05/04 00:12:01;;;;;;;2.33;1.47;;;20.80;68.80;;;;;;5084779;23;20024;-60
2022/05/04 00:14:03;;;;;;;5.72;1.70;;;20.80;68.90;;;;;;5091835;23;20057;-62
2022/05/04 00:16:06;;;;;;;5.18;1.77;;;20.80;69.10;;;;;;5090127;23;20051;-63
2022/05/04 00:18:08;;;;;;;1.52;1.30;;;20.80;69.20;;;;;;5087709;23;20111;-63
2022/05/04 00:20:11;;;;;;;3.78;1.48;;;20.80;69.20;;;;;;5088412;23;20028;-62
2022/05/04 00:22:18;;;;;;;1.77;1.10;;;20.80;69.20;;;;;;5089946;23;20783;-61
2022/05/04 00:24:20;;;;;;;3.15;1.25;;;20.80;69.20;;;;;;5087808;23;20274;-59
2022/05/04 00:26:22;;;;;;;2.85;1.35;;;20.80;69.30;;;;;;5088935;23;20338;-61
2022/05/04 00:28:24;;;;;;;1.45;1.08;;;20.90;69.40;;;;;;5092196;23;20028;-61
2022/05/04 00:30:27;;;;;;;2.35;1.20;;;20.80;69.40;;;;;;5092511;23;20119;-64
2022/05/04 00:32:30;;;;;;;2.72;1.25;;;20.90;69.60;;;;;;5085929;23;20079;-63
2022/05/04 00:34:32;;;;;;;;;;;20.90;69.50;;;;;;5088312;23;20032;-63
2022/05/04 00:36:34;;;;;;;5.60;1.50;;;20.90;69.50;;;;;;5069160;23;20259;-60
2022/05/04 00:38:36;;;;;;;4.82;1.17;;;20.90;69.60;;;;;;5100089;23;20095;-59
2022/05/04 00:40:41;;;;;;;3.17;1.33;;;20.90;69.60;;;;;;5115707;23;20028;-60
2022/05/04 00:42:43;;;;;;;2.60;0.95;;;21.00;69.50;;;;;;5106615;23;20036;-60
2022/05/04 00:44:49;;;;;;;2.38;0.98;;;21.00;69.40;;;;;;5119863;23;20645;-59
2022/05/04 00:46:51;;;;;;;2.45;1.10;;;21.00;69.30;;;;;;5107129;23;20401;-59
2022/05/04 00:48:53;;;;;;;1.85;1.10;;;21.10;69.30;;;;;;5095694;23;20025;-61
2022/05/04 00:50:55;;;;;;;3.88;0.93;;;21.10;69.30;;;;;;5095932;23;20027;-58
2022/05/04 00:52:58;;;;;;;2.53;1.00;;;21.00;69.20;;;;;;5089781;23;20095;-59
2022/05/04 00:55:01;;;;;;;1.80;0.90;;;21.10;69.30;;;;;;5088843;23;20082;-60
2022/05/04 00:57:06;;;;;;;1.35;0.90;;;21.10;69.20;;;;;;5094400;23;20333;-60
2022/05/04 00:59:08;;;;;;;3.70;1.00;;;21.10;69.20;;;;;;5096409;23;20828;-61
2022/05/04 01:01:10;;;;;;;2.20;0.90;;;21.10;69.40;;;;;;5073143;23;21022;-62
2022/05/04 01:03:12;;;;;;;1.88;0.90;;;21.10;69.30;;;;;;5079646;23;20036;-63
2022/05/04 01:05:15;;;;;;;1.00;0.77;;;21.10;69.40;;;;;;5093148;23;20040;-60
2022/05/04 01:07:21;;;;;;;1.42;1.10;;;21.10;69.40;;;;;;5086466;23;20390;-59
2022/05/04 01:09:24;;;;;;;1.63;1.10;;;21.10;69.30;;;;;;5086690;23;20032;-60
2022/05/04 01:11:26;;;;;;;8.13;1.20;;;21.10;69.10;;;;;;5083727;23;20373;-59
2022/05/04 01:13:28;;;;;;;3.65;1.35;;;21.10;68.90;;;;;;5095042;23;20024;-59
2022/05/04 01:15:30;;;;;;;3.58;1.13;;;21.20;68.80;;;;;;5086490;23;20029;-62
2022/05/04 01:17:32;;;;;;;2.53;1.00;;;21.20;68.80;;;;;;5088221;23;20056;-59
2022/05/04 01:19:35;;;;;;;1.15;0.85;;;21.20;68.90;;;;;;5092590;23;20029;-60
2022/05/04 01:21:37;;;;;;;3.67;1.27;;;21.20;68.90;;;;;;5089126;23;20238;-61
2022/05/04 01:23:39;;;;;;;1.50;0.90;;;21.20;69.00;;;;;;5085008;23;20120;-60
2022/05/04 01:25:42;;;;;;;1.83;1.13;;;21.20;69.00;;;;;;5087591;23;20110;-61
2022/05/04 01:27:44;;;;;;;2.35;1.10;;;21.20;69.00;;;;;;5089609;23;20478;-61
2022/05/04 01:29:47;;;;;;;2.45;1.25;;;21.20;69.10;;;;;;5083112;23;20473;-61
2022/05/04 01:31:49;;;;;;;2.25;1.02;;;21.20;69.10;;;;;;5085574;23;20038;-60
2022/05/04 01:33:52;;;;;;;4.07;1.30;;;21.30;69.20;;;;;;5094819;23;20377;-60
2022/05/04 01:35:54;;;;;;;2.47;1.50;;;21.30;69.40;;;;;;5091620;23;20275;-59
2022/05/04 01:37:56;;;;;;;6.00;1.17;;;21.40;69.80;;;;;;5087524;23;20277;-60
2022/05/04 01:39:58;;;;;;;4.38;1.23;;;21.40;70.00;;;;;;5092609;23;20067;-60
2022/05/04 01:42:03;;;;;;;1.98;1.20;;;21.40;69.90;;;;;;5095177;23;20163;-60
2022/05/04 01:44:05;;;;;;;2.50;1.20;;;21.40;69.80;;;;;;5084480;23;20110;-59
2022/05/04 01:46:07;;;;;;;3.58;1.33;;;21.40;69.60;;;;;;5083617;23;20389;-64
2022/05/04 01:48:10;;;;;;;4.82;1.75;;;21.50;69.70;;;;;;5096106;23;20066;-62
2022/05/04 01:50:12;;;;;;;2.17;1.10;;;21.50;69.60;;;;;;5089333;23;20297;-59
2022/05/04 01:52:14;;;;;;;2.60;1.30;;;21.60;69.60;;;;;;5081219;23;20021;-60
2022/05/04 01:54:16;;;;;;;2.42;0.90;;;21.60;69.60;;;;;;5091699;23;20178;-60
2022/05/04 01:56:18;;;;;;;1.08;0.98;;;21.60;69.40;;;;;;5065946;23;20398;-59
2022/05/04 01:58:20;;;;;;;1.92;1.25;;;21.60;69.00;;;;;;5083952;23;20028;-59
2022/05/04 02:00:23;;;;;;;1.77;1.02;;;21.60;68.70;;;;;;5087888;23;20044;-59
2022/05/04 02:02:27;;;;;;;2.03;1.50;;;21.60;68.50;;;;;;5091916;23;20033;-58
2022/05/04 02:04:29;;;;;;;2.00;1.20;;;21.60;68.40;;;;;;5084343;23;20363;-59
2022/05/04 02:06:32;;;;;;;3.78;1.20;;;21.60;68.30;;;;;;5086791;23;20039;-59
2022/05/04 02:08:38;;;;;;;1.67;1.17;;;21.60;68.20;;;;;;5089251;23;20024;-59
2022/05/04 02:10:40;;;;;;;1.30;1.15;;;21.60;68.10;;;;;;5091716;23;20040;-59
2022/05/04 02:12:43;;;;;;;2.65;1.20;;;21.60;68.20;;;;;;5088432;23;20071;-59
2022/05/04 02:14:46;;;;;;;1.75;1.40;;;21.60;68.10;;;;;;5086809;23;20048;-59
2022/05/04 02:16:48;;;;;;;1.48;1.20;;;21.50;68.00;;;;;;5093459;23;20468;-59
2022/05/04 02:18:50;;;;;;;1.45;0.90;;;21.60;68.10;;;;;;5091425;23;20102;-60
2022/05/04 02:20:52;;;;;;;1.40;1.00;;;21.60;68.00;;;;;;5086877;23;20123;-60
2022/05/04 02:22:54;;;;;;;1.10;1.00;;;21.60;68.00;;;;;;5086705;23;20086;-59
2022/05/04 02:24:57;;;;;;;1.88;1.20;;;21.60;68.00;;;;;;5093590;23;20028;-60
2022/05/04 02:26:59;;;;;;;1.65;1.30;;;21.60;67.90;;;;;;5085150;23;20067;-60
2022/05/04 02:29:01;;;;;;;1.35;1.00;;;21.60;67.90;;;;;;5086210;23;20028;-65
2022/05/04 02:31:03;;;;;;;2.80;1.23;;;21.60;67.90;;;;;;5093714;23;20306;-63
2022/05/04 02:33:05;;;;;;;3.00;1.70;;;21.70;67.80;;;;;;5083010;23;20035;-64
2022/05/04 02:39:48;;;;;;;1.17;0.75;;;21.70;68.40;;;;;;5090832;23;20122;-62
2022/05/04 02:41:52;;;;;;;4.65;1.20;;;21.70;68.40;;;;;;5088396;23;20546;-63
2022/05/04 02:43:54;;;;;;;3.67;1.00;;;21.70;68.30;;;;;;5084018;23;20968;-63
2022/05/04 02:45:57;;;;;;;3.38;0.98;;;21.80;68.40;;;;;;5093680;23;20116;-60
2022/05/04 02:47:59;;;;;;;2.55;0.82;;;21.80;68.50;;;;;;5090063;23;20633;-61
2022/05/04 02:50:01;;;;;;;1.95;1.10;;;21.80;68.60;;;;;;5083800;23;20028;-61
2022/05/04 02:52:04;;;;;;;3.30;1.17;;;21.80;68.70;;;;;;5090381;23;20137;-61
2022/05/04 02:54:06;;;;;;;3.53;1.20;;;21.90;68.80;;;;;;5094173;23;20591;-60
2022/05/04 02:56:09;;;;;;;1.63;0.90;;;21.90;68.80;;;;;;5087439;23;20421;-61
2022/05/04 02:58:11;;;;;;;2.35;0.88;;;21.90;68.80;;;;;;5086938;23;20110;-61
2022/05/04 03:00:14;;;;;;;3.30;0.93;;;21.90;68.90;;;;;;5094982;23;20033;-60
2022/05/04 03:02:28;;;;;;;1.13;0.63;;;22.00;68.90;;;;;;5087283;23;20051;-60
2022/05/04 03:04:30;;;;;;;0.75;0.70;;;22.00;69.00;;;;;;5085804;23;20292;-60
2022/05/04 03:06:36;;;;;;;0.95;0.75;;;22.00;69.00;;;;;;5084347;23;20025;-60
2022/05/04 03:08:38;;;;;;;1.33;0.68;;;22.00;69.10;;;;;;5058385;23;20144;-59
2022/05/04 03:13:00;;;;;;;9.80;0.93;;;22.10;69.10;;;;;;5090906;23;20060;-61
2022/05/04 03:15:03;;;;;;;1.85;0.65;;;22.20;69.20;;;;;;5092701;23;20122;-58
2022/05/04 03:17:06;;;;;;;0.52;0.50;;;22.20;69.20;;;;;;5084759;23;20158;-61
2022/05/04 03:19:08;;;;;;;1.75;0.65;;;22.30;69.10;;;;;;5085800;23;20450;-60
2022/05/04 03:21:10;;;;;;;3.22;1.08;;;22.30;68.90;;;;;;5091541;23;20028;-58
2022/05/04 03:23:12;;;;;;;0.68;0.47;;;22.40;68.90;;;;;;5090582;23;20720;-57
2022/05/04 03:25:14;;;;;;;6.35;0.60;;;22.40;68.90;;;;;;5084100;23;20074;-60
2022/05/04 03:27:16;;;;;;;1.40;0.70;;;22.50;68.80;;;;;;5090374;23;20036;-60
2022/05/04 03:29:18;;;;;;;4.68;0.85;;;22.60;68.70;;;;;;5090234;23;20036;-61
2022/05/04 03:31:20;;;;;;;1.05;0.85;;;22.60;68.60;;;;;;5086440;23;20031;-59
2022/05/04 03:33:23;;;;;;;7.10;0.90;;;22.60;68.50;;;;;;5086958;23;20036;-60
2022/05/04 03:35:25;;;;;;;2.97;0.80;;;22.70;68.60;;;;;;5090822;23;20024;-59
2022/05/04 03:37:27;;;;;;;0.90;0.60;;;22.80;68.70;;;;;;5086150;23;20111;-58
2022/05/04 03:39:30;;;;;;;3.45;0.80;;;22.80;68.50;;;;;;5081771;23;20122;-66
2022/05/04 03:41:33;;;;;;;5.53;1.58;;;22.90;68.40;;;;;;5094590;23;20032;-58
2022/05/04 03:43:35;;;;;;;6.70;1.33;;;23.00;68.30;;;;;;5089081;23;20375;-58
2022/05/04 03:45:37;;;;;;;2.22;0.90;;;23.00;68.60;;;;;;5085511;23;20028;-58
2022/05/04 03:47:39;;;;;;;1.73;0.80;;;23.10;67.70;;;;;;5090585;23;20126;-59
2022/05/04 03:49:41;;;;;;;1.10;0.65;;;23.20;68.00;;;;;;5097463;23;20878;-58
2022/05/04 03:51:44;;;;;;;2.28;0.80;;;23.20;67.80;;;;;;5087943;23;20032;-61
2022/05/04 03:53:47;;;;;;;1.00;0.70;;;23.30;67.60;;;;;;5088463;23;20464;-63
2022/05/04 03:55:53;;;;;;;2.83;0.90;;;23.30;67.30;;;;;;5092658;23;20033;-61
2022/05/04 03:57:55;;;;;;;1.73;0.75;;;23.40;67.30;;;;;;5089461;23;20296;-61
2022/05/04 03:59:57;;;;;;;0.65;0.45;;;23.50;67.10;;;;;;5084698;23;20051;-60
2022/05/04 04:01:59;;;;;;;2.72;0.57;;;23.50;66.90;;;;;;5091093;23;20496;-62
2022/05/04 04:04:02;;;;;;;1.03;0.77;;;23.60;66.90;;;;;;5097440;23;20407;-60
2022/05/04 04:06:04;;;;;;;0.90;0.60;;;23.60;66.80;;;;;;5088224;23;20052;-59
2022/05/04 04:08:06;;;;;;;1.08;0.68;;;23.70;66.70;;;;;;5086895;23;20270;-60
2022/05/04 04:10:09;;;;;;;2.38;1.00;;;23.80;66.60;;;;;;5096518;23;20734;-59
2022/05/04 04:12:12;;;;;;;0.90;0.73;;;23.80;66.50;;;;;;5065867;23;20353;-61
2022/05/04 04:14:14;;;;;;;0.93;0.70;;;23.90;66.30;;;;;;5089184;23;20224;-61
2022/05/04 04:16:16;;;;;;;1.55;0.70;;;24.00;66.20;;;;;;5094978;23;20274;-61
2022/05/04 04:18:23;;;;;;;1.05;0.70;;;24.00;66.10;;;;;;5095627;23;20953;-60
2022/05/04 04:22:45;;;;;;;1.40;0.70;;;24.10;65.90;;;;;;5091118;23;20039;-59
2022/05/04 04:24:48;;;;;;;0.65;0.55;;;24.20;65.70;;;;;;5090307;23;20293;-61
2022/05/04 04:26:50;;;;;;;1.40;0.80;;;24.30;65.50;;;;;;5085617;23;20107;-61
2022/05/04 04:28:53;;;;;;;1.67;0.95;;;24.30;65.50;;;;;;5094963;23;20029;-60
2022/05/04 04:30:55;;;;;;;3.13;0.85;;;24.40;65.40;;;;;;5088477;23;20677;-65
2022/05/04 04:32:57;;;;;;;1.88;0.80;;;24.40;65.20;;;;;;5088026;23;20146;-67
2022/05/04 04:34:59;;;;;;;1.92;0.75;;;24.50;65.10;;;;;;5089834;23;20079;-67
2022/05/04 04:37:01;;;;;;;0.82;0.60;;;24.60;65.30;;;;;;5094024;23;20595;-65
2022/05/04 04:39:04;;;;;;;0.85;0.70;;;24.60;65.00;;;;;;5086916;23;20032;-67
2022/05/04 04:41:06;;;;;;;0.60;0.50;;;24.60;64.80;;;;;;5087312;23;20566;-63
2022/05/04 04:43:08;;;;;;;8.47;1.30;;;24.70;65.40;;;;;;5067913;23;20726;-66
2022/05/04 04:45:11;;;;;;;3.05;1.20;;;24.80;64.60;;;;;;5089610;23;20059;-65
2022/05/04 04:47:13;;;;;;;;;;;24.80;64.60;;;;;;5061638;23;20579;-64
2022/05/04 04:49:15;;;;;;;1.35;0.68;;;24.90;64.80;;;;;;5092455;23;20350;-63
2022/05/04 04:51:17;;;;;;;0.75;0.73;;;24.90;64.30;;;;;;5090224;23;20036;-63
2022/05/04 04:53:19;;;;;;;0.95;0.65;;;25.00;64.20;;;;;;5090814;23;20236;-62
2022/05/04 04:55:21;;;;;;;1.75;0.65;;;25.10;64.00;;;;;;5089926;23;20444;-63
2022/05/04 04:57:23;;;;;;;0.60;0.50;;;25.10;63.80;;;;;;5093365;23;20221;-60
2022/05/04 04:59:26;;;;;;;1.95;1.00;;;25.20;63.40;;;;;;5090437;23;20035;-59
2022/05/04 05:01:28;;;;;;;5.25;0.90;;;25.20;63.40;;;;;;5094084;23;20499;-60
2022/05/04 05:03:30;;;;;;;5.15;1.33;;;25.20;63.40;;;;;;5106632;23;20027;-62
2022/05/04 05:05:33;;;;;;;2.58;0.60;;;25.20;63.40;;;;;;5103415;23;20064;-59
2022/05/04 05:07:36;;;;;;;2.85;0.77;;;25.20;63.50;;;;;;5108514;23;20028;-61
2022/05/04 05:09:38;;;;;;;2.42;0.70;;;25.30;63.90;;;;;;5107286;23;20020;-60
2022/05/04 05:11:40;;;;;;;1.15;0.60;;;25.40;63.60;;;;;;5102714;23;20111;-60
2022/05/04 05:16:08;;;;;;;1.35;0.73;;;25.50;63.60;;;;;;5093790;23;20054;-61
2022/05/04 05:18:11;;;;;;;0.57;0.50;;;25.60;63.50;;;;;;5085777;23;20035;-61
2022/05/04 05:20:13;;;;;;;1.75;0.63;;;25.60;63.50;;;;;;5086870;23;20119;-59
2022/05/04 05:22:15;;;;;;;1.65;0.60;;;25.70;63.50;;;;;;5092543;23;20051;-60
2022/05/04 05:24:18;;;;;;;1.35;0.70;;;25.70;63.40;;;;;;5090391;23;20981;-60
2022/05/04 05:26:20;;;;;;;0.68;0.50;;;25.70;63.40;;;;;;5087307;23;20632;-60
2022/05/04 05:28:22;;;;;;;1.27;0.75;;;25.80;63.60;;;;;;5088848;23;20507;-61
2022/05/04 05:30:25;;;;;;;3.72;0.82;;;25.80;63.60;;;;;;5091077;23;20586;-61
2022/05/04 05:32:27;;;;;;;1.95;0.47;;;25.80;63.50;;;;;;5087234;23;20032;-62
2022/05/04 05:34:31;;;;;;;1.50;0.40;;;25.80;63.90;;;;;;5088784;23;20029;-61
2022/05/04 05:36:33;;;;;;;0.40;0.40;;;25.80;63.80;;;;;;5095774;23;20055;-60
2022/05/04 05:38:35;;;;;;;1.08;0.40;;;25.80;63.70;;;;;;5083715;23;20399;-59
2022/05/04 05:40:37;;;;;;;1.55;0.52;;;25.80;63.80;;;;;;5088744;23;20029;-60
2022/05/04 05:42:39;;;;;;;0.65;0.40;;;25.80;63.70;;;;;;5091667;23;20028;-60
2022/05/04 05:44:42;;;;;;;0.65;0.40;;;25.80;63.80;;;;;;5086224;23;20481;-60
2022/05/04 05:46:44;;;;;;;4.27;0.73;;;25.80;63.80;;;;;;5085294;23;20055;-59
2022/05/04 05:48:47;;;;;;;0.40;0.40;;;25.80;63.90;;;;;;5089320;23;20290;-63
2022/05/04 05:50:49;;;;;;;0.85;0.50;;;25.80;63.80;;;;;;5092567;23;20394;-61
2022/05/04 05:52:51;;;;;;;0.90;0.40;;;25.80;63.90;;;;;;5087116;23;20332;-61
2022/05/04 05:54:53;;;;;;;0.75;0.60;;;25.80;64.00;;;;;;5085780;23;20510;-63
2022/05/04 05:56:55;;;;;;;0.68;0.50;;;25.80;64.00;;;;;;5094396;23;20535;-62
2022/05/04 05:58:57;;;;;;;0.40;0.40;;;25.80;63.90;;;;;;5087535;23;20059;-62
2022/05/04 06:01:00;;;;;;;0.40;0.40;;;25.80;64.00;;;;;;5086230;23;20029;-60
2022/05/04 06:03:02;;;;;;;0.98;0.60;;;25.80;64.10;;;;;;5092999;23;20024;-60
2022/05/04 06:05:05;;;;;;;2.05;0.45;;;25.80;64.10;;;;;;5092904;23;20056;-62
2022/05/04 06:07:07;;;;;;;1.40;0.30;;;25.70;64.10;;;;;;5084287;23;20341;-62
2022/05/04 06:09:09;;;;;;;0.60;0.40;;;25.70;64.10;;;;;;5081327;23;20028;-58
2022/05/04 06:11:11;;;;;;;0.82;0.47;;;25.70;64.20;;;;;;5091652;23;20024;-62
2022/05/04 06:13:13;;;;;;;0.98;0.50;;;25.70;64.10;;;;;;5080055;23;20032;-60
2022/05/04 06:15:15;;;;;;;0.43;0.40;;;25.70;64.20;;;;;;5079281;23;20028;-61
2022/05/04 06:17:18;;;;;;;0.77;0.70;;;25.70;64.20;;;;;;5092189;23;20452;-61
2022/05/04 06:19:20;;;;;;;0.40;0.40;;;25.80;64.20;;;;;;5086437;23;20964;-64
2022/05/04 06:21:22;;;;;;;0.95;0.38;;;25.70;64.20;;;;;;5086374;23;20123;-60
2022/05/04 06:23:24;;;;;;;0.40;0.40;;;25.80;63.80;;;;;;5089361;23;20136;-63
2022/05/04 06:25:26;;;;;;;0.50;0.40;;;25.70;64.20;;;;;;5085238;23;20763;-61
2022/05/04 06:27:29;;;;;;;0.88;0.50;;;25.70;64.30;;;;;;5084723;23;20387;-63
2022/05/04 06:34:12;;;;;;;0.77;0.40;;;25.70;64.40;;;;;;5085682;23;20730;-63
2022/05/04 06:36:14;;;;;;;0.30;0.30;;;25.70;64.40;;;;;;5084298;23;20638;-61
2022/05/04 06:38:16;;;;;;;1.10;0.50;;;25.70;64.50;;;;;;5087901;23;20040;-61
2022/05/04 06:40:20;;;;;;;0.30;0.30;;;25.70;64.50;;;;;;5084192;23;20597;-65
2022/05/04 06:42:22;;;;;;;2.95;0.68;;;25.70;64.50;;;;;;5080928;23;20520;-64
2022/05/04 06:44:24;;;;;;;1.95;0.93;;;25.70;64.40;;;;;;5084297;23;20427;-65
2022/05/04 06:46:26;;;;;;;8.13;0.70;;;25.70;64.40;;;;;;5092100;23;20363;-66
2022/05/04 06:48:28;;;;;;;2.20;0.63;;;25.70;64.50;;;;;;5079542;23;20107;-62
2022/05/04 06:50:31;;;;;;;2.40;0.93;;;25.70;64.50;;;;;;5083635;23;20426;-62
2022/05/04 06:52:34;;;;;;;4.45;1.02;;;25.70;64.50;;;;;;5086700;23;20468;-63
2022/05/04 06:54:37;;;;;;;16.00;0.90;;;25.70;64.60;;;;;;5086258;23;20409;-62
2022/05/04 06:56:39;;;;;;;1.20;0.50;;;25.70;64.70;;;;;;5085573;23;20052;-62
2022/05/04 06:58:41;;;;;;;2.15;0.75;;;25.70;64.70;;;;;;5083938;23;20166;-62
2022/05/04 07:00:43;;;;;;;1.98;0.73;;;25.70;64.80;;;;;;5090750;23;20032;-62
2022/05/04 07:02:45;;;;;;;2.43;0.77;;;25.70;64.80;;;;;;5084655;23;20193;-62
2022/05/04 07:04:47;;;;;;;5.88;1.33;;;25.70;64.80;;;;;;5086951;23;20028;-64
2022/05/04 07:06:50;;;;;;;3.35;0.70;;;25.70;64.90;;;;;;5092272;23;20032;-64
2022/05/04 07:08:52;;;;;;;7.30;0.83;;;25.70;64.90;;;;;;5060802;23;20670;-63
2022/05/04 07:10:54;;;;;;;8.93;0.70;;;25.70;65.00;;;;;;5082946;23;20805;-61
2022/05/04 07:12:56;;;;;;;1.95;0.60;;;25.70;65.00;;;;;;5087086;23;20025;-61
2022/05/04 07:14:58;;;;;;;5.45;2.53;;;25.70;65.10;;;;;;5093039;23;20024;-61
2022/05/04 07:17:00;;;;;;;12.98;6.97;;;25.60;64.00;;;;;;5090078;23;20028;-60
2022/05/04 07:19:03;;;;;;;22.58;11.48;;;25.60;63.50;;;;;;5091555;23;20036;-61
2022/05/04 07:21:05;;;;;;;26.15;12.30;;;25.50;63.10;;;;;;5094979;23;20028;-60
2022/05/04 07:23:07;;;;;;;37.53;20.40;;;25.50;63.20;;;;;;5087988;23;20138;-60
2022/05/04 07:25:10;;;;;;;39.80;20.20;;;25.40;63.00;;;;;;5087979;23;20036;-61
2022/05/04 07:27:12;;;;;;;37.50;17.70;;;25.40;63.00;;;;;;5091718;23;20541;-60
2022/05/04 07:29:14;;;;;;;38.05;18.73;;;25.40;63.20;;;;;;5092926;23;20039;-62
2022/05/04 07:31:16;;;;;;;32.20;15.38;;;25.30;63.30;;;;;;5086845;23;20499;-62
2022/05/04 07:33:18;;;;;;;36.53;16.58;;;25.30;63.50;;;;;;5094572;23;20035;-62
2022/05/04 07:35:20;;;;;;;35.70;17.25;;;25.30;63.50;;;;;;5096356;23;20021;-62
2022/05/04 07:37:23;;;;;;;28.80;16.73;;;25.30;63.70;;;;;;5065599;23;20029;-60
2022/05/04 07:44:06;;;;;;;47.47;23.15;;;25.20;64.20;;;;;;5087255;23;20760;-59
2022/05/04 07:46:08;;;;;;;45.85;21.65;;;25.20;64.10;;;;;;5087331;23;20048;-61
2022/05/04 07:48:10;;;;;;;51.63;25.33;;;25.20;64.00;;;;;;5088923;23;20040;-61
2022/05/04 07:50:13;;;;;;;82.60;37.87;;;25.20;63.90;;;;;;5091814;23;20909;-61
2022/05/04 07:52:15;;;;;;;68.50;31.55;;;25.10;63.80;;;;;;5087338;23;20091;-61
2022/05/04 07:54:17;;;;;;;62.50;33.05;;;25.10;63.80;;;;;;5090835;23;20039;-61
2022/05/04 07:56:20;;;;;;;70.95;33.55;;;25.10;63.90;;;;;;5094692;23;20097;-62
2022/05/04 07:58:22;;;;;;;56.47;28.35;;;25.10;63.90;;;;;;5083591;23;20566;-61
2022/05/04 08:05:09;;;;;;;54.92;28.17;;;25.00;64.10;;;;;;5094036;23;20340;-62
2022/05/04 08:07:11;;;;;;;53.65;27.67;;;25.00;64.10;;;;;;5086218;23;20555;-62
2022/05/04 08:09:14;;;;;;;51.22;27.38;;;25.00;64.20;;;;;;5084053;23;20090;-64
2022/05/04 08:11:16;;;;;;;52.50;26.38;;;24.90;64.20;;;;;;5092790;23;20310;-61
2022/05/04 08:13:21;;;;;;;56.33;26.95;;;24.90;64.30;;;;;;5089128;23;20032;-61
2022/05/04 08:15:23;;;;;;;46.65;24.05;;;24.90;64.60;;;;;;5062768;23;20409;-62
2022/05/04 08:17:26;;;;;;;44.85;25.20;;;24.90;64.40;;;;;;5108662;23;20428;-61
2022/05/04 08:19:28;;;;;;;46.85;25.55;;;24.90;64.50;;;;;;5094518;23;20866;-63
2022/05/04 08:21:31;;;;;;;52.43;24.40;;;24.80;64.50;;;;;;5088660;23;20507;-62
2022/05/04 08:23:33;;;;;;;48.50;24.98;;;24.80;64.70;;;;;;5087339;23;20044;-62
2022/05/04 08:25:35;;;;;;;46.47;23.15;;;24.80;64.80;;;;;;5092939;23;20024;-60
2022/05/04 08:27:37;;;;;;;49.85;25.10;;;24.80;64.90;;;;;;5091185;23;20029;-61
2022/05/04 08:29:40;;;;;;;45.70;24.23;;;24.80;65.00;;;;;;5086191;23;20390;-59
2022/05/04 08:31:42;;;;;;;47.03;23.42;;;24.80;65.10;;;;;;5087429;23;20024;-61
2022/05/04 08:33:44;;;;;;;40.30;19.98;;;24.80;65.20;;;;;;5090287;23;20542;-60
2022/05/04 08:35:47;;;;;;;44.13;23.15;;;24.80;65.20;;;;;;5087153;23;20044;-57
2022/05/04 08:37:49;;;;;;;41.17;21.17;;;24.80;65.30;;;;;;5083559;23;20154;-59
2022/05/04 08:39:51;;;;;;;34.63;17.95;;;24.80;65.30;;;;;;5093638;23;20028;-59
2022/05/04 08:41:53;;;;;;;37.63;18.13;;;24.80;65.40;;;;;;5086851;23;20450;-59
2022/05/04 08:43:57;;;;;;;29.27;15.23;;;24.80;66.30;;;;;;5086176;23;20047;-60
2022/05/04 08:46:02;;;;;;;31.35;15.93;;;24.80;65.80;;;;;;5088885;23;20108;-59
2022/05/04 08:48:05;;;;;;;29.25;14.90;;;24.80;66.20;;;;;;5090773;23;20098;-59
2022/05/04 08:50:14;;;;;;;29.45;14.65;;;24.80;66.20;;;;;;5059918;23;20544;-59
2022/05/04 08:52:16;;;;;;;24.17;12.93;;;24.80;66.40;;;;;;5079733;23;20032;-59
2022/05/04 08:54:18;;;;;;;21.85;12.88;;;24.80;66.50;;;;;;5086184;23;20028;-59
2022/05/04 08:56:20;;;;;;;28.13;12.50;;;24.80;66.60;;;;;;5093095;23;20036;-60
2022/05/04 08:58:22;;;;;;;22.55;11.93;;;24.80;66.50;;;;;;5088999;23;20017;-60
2022/05/04 09:00:25;;;;;;;23.90;12.13;;;24.80;66.80;;;;;;5082646;23;20516;-59
2022/05/04 09:02:27;;;;;;;19.25;10.55;;;24.80;66.90;;;;;;5078685;23;20029;-59
2022/05/04 09:04:33;;;;;;;22.70;10.15;;;24.80;66.80;;;;;;5065597;23;20661;-60
2022/05/04 09:06:42;;;;;;;16.35;9.35;;;24.90;66.90;;;;;;5084443;23;20082;-59
2022/05/04 09:09:08;;;;;;;18.38;9.20;;;24.90;67.10;;;;;;5083530;23;20520;-59
2022/05/04 09:11:16;;;;;;;14.75;8.32;;;24.90;67.10;;;;;;5093212;23;20574;-58
2022/05/04 09:13:21;;;;;;;16.92;8.48;;;24.90;67.10;;;;;;5087083;23;21030;-59
2022/05/04 09:15:27;;;;;;;16.08;8.30;;;24.90;67.10;;;;;;5084279;23;20481;-59
2022/05/04 09:17:30;;;;;;;15.95;8.70;;;24.90;67.10;;;;;;5082234;23;20090;-60
2022/05/04 09:19:33;;;;;;;15.07;7.15;;;24.90;67.10;;;;;;5090707;23;20222;-61
2022/05/04 09:21:36;;;;;;;16.40;7.03;;;24.90;67.10;;;;;;5094307;23;20078;-65
2022/05/04 09:23:40;;;;;;;16.23;8.75;;;24.90;67.20;;;;;;5092488;23;20029;-61
2022/05/04 09:25:42;;;;;;;14.27;8.07;;;24.90;67.20;;;;;;5098682;23;20104;-60
2022/05/04 09:27:56;;;;;;;19.73;9.15;;;24.90;67.10;;;;;;5105823;23;20575;-59
2022/05/04 09:30:01;;;;;;;13.48;8.13;;;24.90;67.10;;;;;;5111448;23;20020;-59
2022/05/04 09:32:18;;;;;;;13.50;7.07;;;24.90;67.30;;;;;;5103761;23;20341;-59
2022/05/04 09:34:49;;;;;;;14.10;7.95;;;24.90;67.30;;;;;;5125340;23;20042;-60
2022/05/04 09:46:37;;;;;;;21.77;8.27;;;25.00;67.20;;;;;;5079431;23;20024;-60
2022/05/04 09:48:40;;;;;;;13.07;6.70;;;25.00;67.40;;;;;;5090912;23;20060;-60
2022/05/04 09:50:43;;;;;;;19.60;7.22;;;25.00;67.50;;;;;;5090547;23;20962;-60
2022/05/04 09:52:48;;;;;;;11.82;6.63;;;25.00;67.50;;;;;;5085266;23;20381;-59
2022/05/04 09:54:53;;;;;;;20.77;5.97;;;25.00;67.70;;;;;;5084250;23;20740;-60
2022/05/04 09:57:01;;;;;;;12.48;6.97;;;25.00;67.70;;;;;;5091572;23;20025;-60
2022/05/04 09:59:05;;;;;;;13.57;6.38;;;25.00;67.70;;;;;;5091179;23;20036;-60
2022/05/04 10:01:08;;;;;;;10.13;5.45;;;25.00;67.80;;;;;;5087228;23;20439;-59
2022/05/04 10:03:11;;;;;;;11.15;5.80;;;25.00;68.40;;;;;;5084069;23;20535;-60
2022/05/04 10:05:14;;;;;;;14.00;5.75;;;25.00;67.80;;;;;;5088531;23;20033;-59
2022/05/04 10:07:17;;;;;;;10.93;5.80;;;25.00;67.90;;;;;;5092108;23;20028;-60
2022/05/04 10:09:22;;;;;;;12.60;5.00;;;25.00;67.80;;;;;;5085673;23;20383;-60
2022/05/04 10:11:24;;;;;;;8.65;5.03;;;25.00;68.00;;;;;;5085287;23;20266;-61
2022/05/04 10:13:26;;;;;;;12.65;5.63;;;25.00;67.90;;;;;;5090320;23;20097;-63
2022/05/04 10:15:31;;;;;;;12.60;4.63;;;25.00;67.90;;;;;;5090485;23;20135;-62
2022/05/04 10:17:34;;;;;;;8.52;4.95;;;25.00;67.90;;;;;;5079593;23;20468;-64
2022/05/04 10:20:13;;;;;;;10.18;4.72;;;25.00;67.90;;;;;;5083101;23;20414;-64
2022/05/04 10:22:19;;;;;;;8.10;4.60;;;25.00;67.90;;;;;;5088245;23;20357;-63
2022/05/04 10:24:23;;;;;;;6.90;4.05;;;25.00;68.10;;;;;;5093446;23;20381;-61
2022/05/04 10:26:36;;;;;;;15.30;4.85;;;25.00;68.10;;;;;;5085708;23;20366;-61
2022/05/04 10:28:41;;;;;;;;;;;25.10;68.30;;;;;;5085284;23;20506;-60
2022/05/04 10:30:59;;;;;;;7.97;4.18;;;25.10;68.20;;;;;;5084270;23;19974;-61
2022/05/04 10:33:08;;;;;;;9.02;4.28;;;25.10;68.30;;;;;;5084193;23;20135;-58
2022/05/04 10:35:28;;;;;;;9.55;4.13;;;25.10;68.40;;;;;;5085588;23;20033;-58
2022/05/04 10:37:31;;;;;;;10.00;4.22;;;25.10;68.40;;;;;;5087979;23;20472;-60
2022/05/04 10:39:34;;;;;;;8.55;3.95;;;25.10;68.40;;;;;;5085940;23;20194;-59
2022/05/04 10:41:41;;;;;;;6.03;3.47;;;25.10;68.30;;;;;;5083697;23;20036;-59
2022/05/04 10:43:50;;;;;;;7.35;3.97;;;25.10;68.30;;;;;;5088539;23;20040;-58
2022/05/04 10:45:52;;;;;;;10.75;3.88;;;25.10;68.30;;;;;;5093303;23;20056;-60
2022/05/04 10:48:15;;;;;;;6.63;3.40;;;25.10;68.40;;;;;;5081342;23;20485;-59
2022/05/04 10:50:20;;;;;;;6.60;3.43;;;25.10;68.40;;;;;;5094166;23;20406;-61
2022/05/04 10:52:23;;;;;;;5.20;3.17;;;25.10;68.40;;;;;;5090365;23;20713;-53
2022/05/04 10:54:29;;;;;;;10.53;3.17;;;25.10;68.30;;;;;;5085209;23;20337;-51
2022/05/04 10:56:52;;;;;;;7.88;4.15;;;25.10;68.40;;;;;;5085446;23;20499;-54
2022/05/04 10:58:57;;;;;;;9.63;4.40;;;25.00;67.70;;;;;;5084097;23;20756;-56
2022/05/04 11:01:10;;;;;;;8.77;4.57;;;25.00;67.40;;;;;;5085272;23;20553;-55
2022/05/04 11:03:12;;;;;;;8.17;4.03;;;25.00;67.10;;;;;;5084900;23;20192;-56
2022/05/04 11:05:15;;;;;;;6.60;4.00;;;24.90;67.00;;;;;;5081543;23;20524;-59
2022/05/04 11:07:17;;;;;;;7.35;4.05;;;25.00;67.10;;;;;;5092041;23;20374;-59
2022/05/04 11:09:43;;;;;;;10.17;4.37;;;24.90;67.20;;;;;;5087855;23;20039;-60
2022/05/04 11:11:47;;;;;;;7.72;3.78;;;24.90;67.70;;;;;;5092561;23;20099;-58
2022/05/04 11:13:50;;;;;;;8.73;4.20;;;24.90;67.90;;;;;;5090789;23;20252;-56
2022/05/04 11:15:53;;;;;;;8.02;3.53;;;24.90;68.00;;;;;;5085862;23;20570;-53